Time,TemperatureF,DewpointF,PressureIn,WindDirection,WindDirectionDegrees,WindSpeedMPH,WindSpeedGustMPH,Humidity,HourlyPrecipIn,Conditions,Clouds,dailyrainin,SoftwareType,DateUTC
2013-04-18 00:08:00,67.6,67.0,30.10,SSW,198,0.0,-999.0,97,-99.99,,,0.00,weatherlink.com 1.10,2013-04-18 04:08:00,
2013-04-18 00:23:00,67.3,67.0,30.10,SSW,198,0.0,-999.0,97,-99.99,,,0.00,weatherlink.com 1.10,2013-04-18 04:23:00,
2013-04-18 00:38:00,67.2,66.0,30.10,SSW,198,0.0,-999.0,97,-99.99,,,0.00,weatherlink.com 1.10,2013-04-18 04:38:00,
2013-04-18 00:54:00,67.0,66.0,30.10,SSW,198,0.0,-999.0,97,-99.99,,,0.00,weatherlink.com 1.10,2013-04-18 04:54:00,
2013-04-18 01:09:00,66.6,66.0,30.09,SSW,198,0.0,-999.0,97,-99.99,,,0.00,weatherlink.com 1.10,2013-04-18 05:09:00,
2013-04-18 01:24:00,66.3,66.0,30.09,SSW,198,0.0,-999.0,97,-99.99,,,0.00,weatherlink.com 1.10,2013-04-18 05:24:00,
2013-04-18 01:39:00,66.2,65.0,30.09,SSW,198,0.0,-999.0,97,-99.99,,,0.00,weatherlink.com 1.10,2013-04-18 05:39:00,
2013-04-18 01:53:00,66.2,66.0,30.07,SSW,198,0.0,-999.0,98,-99.99,,,0.00,weatherlink.com 1.10,2013-04-18 05:53:00,
2013-04-18 02:08:00,66.3,66.0,30.07,SSW,198,0.0,-999.0,98,-99.99,,,0.00,weatherlink.com 1.10,2013-04-18 06:08:00,
2013-04-18 02:23:00,66.3,66.0,30.06,SSW,198,0.0,-999.0,98,-99.99,,,0.00,weatherlink.com 1.10,2013-04-18 06:23:00,
2013-04-18 02:38:00,66.0,66.0,30.05,SSW,198,0.0,-999.0,98,-99.99,,,0.00,weatherlink.com 1.10,2013-04-18 06:38:00,
2013-04-18 02:54:00,65.8,65.0,30.05,SSW,198,0.0,-999.0,98,-99.99,,,0.00,weatherlink.com 1.10,2013-04-18 06:54:00,
2013-04-18 03:09:00,65.6,65.0,30.04,SSW,198,0.0,-999.0,98,-99.99,,,0.00,weatherlink.com 1.10,2013-04-18 07:09:00,
2013-04-18 03:24:00,65.6,65.0,30.04,SSW,198,0.0,-999.0,98,-99.99,,,0.00,weatherlink.com 1.10,2013-04-18 07:24:00,
2013-04-18 03:39:00,65.5,65.0,30.04,SSW,198,0.0,-999.0,98,-99.99,,,0.00,weatherlink.com 1.10,2013-04-18 07:39:00,
2013-04-18 03:54:00,65.4,65.0,30.04,SSW,198,0.0,-999.0,98,-99.99,,,0.00,weatherlink.com 1.10,2013-04-18 07:54:00,
2013-04-18 04:00:00,65.3,64.7,30.03,SSW,198,0.0,0.0,98,0.00,,,0.00,Wunderground v.1.15,2013-04-18 08:00:00,
2013-04-18 04:09:00,65.1,65.0,30.04,SSW,198,0.0,-999.0,98,-99.99,,,0.00,weatherlink.com 1.10,2013-04-18 08:09:00,
2013-04-18 04:15:00,65.2,64.6,30.03,SSW,198,0.0,0.0,98,0.00,,,0.00,Wunderground v.1.15,2013-04-18 08:15:00,
2013-04-18 04:20:00,65.1,64.5,30.03,SSW,198,0.0,0.0,98,0.00,,,0.00,Wunderground v.1.15,2013-04-18 08:20:00,
2013-04-18 04:25:00,65.0,64.4,30.03,SSW,198,0.0,0.0,98,0.00,,,0.00,Wunderground v.1.15,2013-04-18 08:25:00,
2013-04-18 04:30:00,65.0,64.4,30.03,SSW,198,0.0,0.0,98,0.00,,,0.00,Wunderground v.1.15,2013-04-18 08:30:00,
2013-04-18 04:35:00,65.0,64.4,30.03,SSW,198,0.0,0.0,98,0.00,,,0.00,Wunderground v.1.15,2013-04-18 08:35:00,
2013-04-18 04:40:00,65.0,64.4,30.03,SSW,198,0.0,0.0,98,0.00,,,0.00,Wunderground v.1.15,2013-04-18 08:40:00,
2013-04-18 04:45:00,65.0,64.4,30.03,SSW,198,0.0,0.0,98,0.00,,,0.00,Wunderground v.1.15,2013-04-18 08:45:00,
2013-04-18 04:54:00,64.8,64.0,30.04,SSW,198,0.0,-999.0,98,-99.99,,,0.00,weatherlink.com 1.10,2013-04-18 08:54:00,
2013-04-18 05:00:00,64.8,64.2,30.03,SSW,198,0.0,0.0,98,0.00,,,0.00,Wunderground v.1.15,2013-04-18 09:00:00,
2013-04-18 05:05:00,64.7,64.1,30.03,SSW,198,0.0,0.0,98,0.00,,,0.00,Wunderground v.1.15,2013-04-18 09:05:00,
2013-04-18 05:10:00,64.8,64.2,30.04,SSW,198,0.0,0.0,98,0.00,,,0.00,Wunderground v.1.15,2013-04-18 09:10:00,
2013-04-18 05:15:00,64.8,64.2,30.03,SSW,198,0.0,0.0,98,0.00,,,0.00,Wunderground v.1.15,2013-04-18 09:15:00,
2013-04-18 05:20:00,64.8,64.2,30.03,SSW,198,0.0,0.0,98,0.00,,,0.00,Wunderground v.1.15,2013-04-18 09:20:00,
2013-04-18 05:25:00,64.7,64.1,30.03,SSW,198,0.0,0.0,98,0.00,,,0.00,Wunderground v.1.15,2013-04-18 09:25:00,
2013-04-18 05:30:00,64.6,64.0,30.03,SSW,198,0.0,0.0,98,0.00,,,0.00,Wunderground v.1.15,2013-04-18 09:30:00,
2013-04-18 05:35:00,64.4,63.8,30.03,SSW,198,0.0,0.0,98,0.00,,,0.00,Wunderground v.1.15,2013-04-18 09:35:00,
2013-04-18 05:54:00,63.9,63.0,30.03,SSW,198,0.0,-999.0,98,-99.99,,,0.00,weatherlink.com 1.10,2013-04-18 09:54:00,
2013-04-18 06:09:00,64.0,64.0,30.04,SSW,198,0.0,-999.0,98,-99.99,,,0.00,weatherlink.com 1.10,2013-04-18 10:09:00,
2013-04-18 06:24:00,63.8,63.0,30.04,SSW,198,0.0,-999.0,98,-99.99,,,0.00,weatherlink.com 1.10,2013-04-18 10:24:00,
2013-04-18 06:39:00,63.7,63.0,30.05,SSW,198,0.0,-999.0,98,-99.99,,,0.00,weatherlink.com 1.10,2013-04-18 10:39:00,
2013-04-18 06:54:00,63.6,63.0,30.05,SSW,198,0.0,-999.0,98,-99.99,,,0.00,weatherlink.com 1.10,2013-04-18 10:54:00,
2013-04-18 07:09:00,63.5,63.0,30.05,SSW,198,0.0,-999.0,98,-99.99,,,0.00,weatherlink.com 1.10,2013-04-18 11:09:00,
2013-04-18 07:24:00,63.6,63.0,30.06,SSW,198,0.0,-999.0,98,-99.99,,,0.00,weatherlink.com 1.10,2013-04-18 11:24:00,
2013-04-18 07:39:00,63.9,63.0,30.06,SSW,198,0.0,-999.0,98,-99.99,,,0.00,weatherlink.com 1.10,2013-04-18 11:39:00,
2013-04-18 07:54:00,64.5,64.0,30.07,SSW,198,0.0,-999.0,98,-99.99,,,0.00,weatherlink.com 1.10,2013-04-18 11:54:00,
2013-04-18 08:09:00,65.6,65.0,30.07,SSW,198,0.0,-999.0,98,-99.99,,,0.00,weatherlink.com 1.10,2013-04-18 12:09:00,
2013-04-18 08:24:00,67.7,67.0,30.07,SSW,198,0.0,-999.0,98,-99.99,,,0.00,weatherlink.com 1.10,2013-04-18 12:24:00,
2013-04-18 08:39:00,67.9,67.0,30.07,SSW,198,0.0,-999.0,97,-99.99,,,0.00,weatherlink.com 1.10,2013-04-18 12:39:00,
2013-04-18 08:54:00,68.2,68.0,30.07,SSW,198,0.0,-999.0,98,-99.99,,,0.00,weatherlink.com 1.10,2013-04-18 12:54:00,
2013-04-18 09:09:00,70.4,70.0,30.08,South,190,0.0,-999.0,98,-99.99,,,0.00,weatherlink.com 1.10,2013-04-18 13:09:00,
2013-04-18 09:24:00,72.4,70.0,30.07,East,94,0.0,-999.0,93,-99.99,,,0.00,weatherlink.com 1.10,2013-04-18 13:24:00,
2013-04-18 09:39:00,75.1,72.0,30.08,ESE,118,0.0,-999.0,89,-99.99,,,0.00,weatherlink.com 1.10,2013-04-18 13:39:00,
2013-04-18 09:54:00,77.5,72.0,30.08,East,88,0.0,-999.0,83,-99.99,,,0.00,weatherlink.com 1.10,2013-04-18 13:54:00,
2013-04-18 10:09:00,77.1,71.0,30.08,East,85,1.0,-999.0,82,-99.99,,,0.00,weatherlink.com 1.10,2013-04-18 14:09:00,
2013-04-18 10:24:00,77.9,72.0,30.09,NNW,338,1.0,-999.0,83,-99.99,,,0.00,weatherlink.com 1.10,2013-04-18 14:24:00,
2013-04-18 10:39:00,78.8,71.0,30.09,ESE,105,0.0,-999.0,77,-99.99,,,0.00,weatherlink.com 1.10,2013-04-18 14:39:00,
2013-04-18 10:54:00,79.1,71.0,30.09,ENE,77,1.0,-999.0,76,-99.99,,,0.00,weatherlink.com 1.10,2013-04-18 14:54:00,
2013-04-18 11:09:00,80.1,72.0,30.09,ENE,78,0.0,-999.0,77,-99.99,,,0.00,weatherlink.com 1.10,2013-04-18 15:09:00,
2013-04-18 11:24:00,80.1,72.0,30.08,WNW,289,1.0,-999.0,75,-99.99,,,0.00,weatherlink.com 1.10,2013-04-18 15:24:00,
2013-04-18 11:39:00,79.5,71.0,30.07,NE,40,1.0,-999.0,76,-99.99,,,0.00,weatherlink.com 1.10,2013-04-18 15:39:00,
2013-04-18 11:55:00,80.0,71.0,30.07,NE,50,3.0,-999.0,75,-99.99,,,0.00,weatherlink.com 1.10,2013-04-18 15:55:00,
2013-04-18 12:10:00,80.4,71.0,30.07,ENE,74,2.0,-999.0,73,-99.99,,,0.00,weatherlink.com 1.10,2013-04-18 16:10:00,
2013-04-18 12:25:00,80.0,70.0,30.07,NNE,32,1.0,-999.0,72,-99.99,,,0.00,weatherlink.com 1.10,2013-04-18 16:25:00,
2013-04-18 12:40:00,80.4,71.0,30.07,WSW,257,1.0,-999.0,74,-99.99,,,0.00,weatherlink.com 1.10,2013-04-18 16:40:00,
2013-04-18 12:55:00,80.8,72.0,30.06,ESE,102,0.0,-999.0,74,-99.99,,,0.00,weatherlink.com 1.10,2013-04-18 16:55:00,
2013-04-18 13:10:00,80.8,71.0,30.05,NNW,346,0.0,-999.0,72,-99.99,,,0.00,weatherlink.com 1.10,2013-04-18 17:10:00,
2013-04-18 13:25:00,80.8,70.0,30.06,ESE,109,2.0,-999.0,70,-99.99,,,0.00,weatherlink.com 1.10,2013-04-18 17:25:00,
2013-04-18 13:40:00,80.6,70.0,30.05,SSW,205,0.0,-999.0,71,-99.99,,,0.00,weatherlink.com 1.10,2013-04-18 17:40:00,
2013-04-18 13:54:00,80.8,70.0,30.05,SSE,161,1.0,-999.0,69,-99.99,,,0.00,weatherlink.com 1.10,2013-04-18 17:54:00,
2013-04-18 14:09:00,80.3,68.0,30.04,ENE,64,8.0,-999.0,67,-99.99,,,0.00,weatherlink.com 1.10,2013-04-18 18:09:00,
2013-04-18 14:25:00,80.1,70.0,30.04,East,96,1.0,-999.0,70,-99.99,,,0.00,weatherlink.com 1.10,2013-04-18 18:25:00,
2013-04-18 14:40:00,80.5,69.0,30.04,ENE,67,2.0,-999.0,69,-99.99,,,0.00,weatherlink.com 1.10,2013-04-18 18:40:00,
2013-04-18 14:55:00,80.1,69.0,30.04,NE,53,0.0,-999.0,68,-99.99,,,0.00,weatherlink.com 1.10,2013-04-18 18:55:00,
2013-04-18 15:10:00,80.9,72.0,30.02,ENE,61,1.0,-999.0,73,-99.99,,,0.00,weatherlink.com 1.10,2013-04-18 19:10:00,
2013-04-18 15:25:00,80.3,70.0,30.02,East,94,1.0,-999.0,71,-99.99,,,0.00,weatherlink.com 1.10,2013-04-18 19:25:00,
2013-04-18 15:40:00,79.8,69.0,30.01,ENE,64,0.0,-999.0,70,-99.99,,,0.00,weatherlink.com 1.10,2013-04-18 19:40:00,
2013-04-18 15:55:00,79.7,69.0,30.01,ENE,66,4.0,-999.0,70,-99.99,,,0.00,weatherlink.com 1.10,2013-04-18 19:55:00,
2013-04-18 16:10:00,79.1,69.0,30.01,SW,214,1.0,-999.0,71,-99.99,,,0.00,weatherlink.com 1.10,2013-04-18 20:10:00,
2013-04-18 16:25:00,78.9,70.0,30.01,ENE,72,1.0,-999.0,74,-99.99,,,0.00,weatherlink.com 1.10,2013-04-18 20:25:00,
2013-04-18 16:40:00,79.2,70.0,30.00,ENE,58,0.0,-999.0,73,-99.99,,,0.00,weatherlink.com 1.10,2013-04-18 20:40:00,
2013-04-18 16:55:00,79.0,70.0,30.00,WNW,286,0.0,-999.0,74,-99.99,,,0.00,weatherlink.com 1.10,2013-04-18 20:55:00,
2013-04-18 17:10:00,78.6,70.0,30.00,West,271,0.0,-999.0,75,-99.99,,,0.00,weatherlink.com 1.10,2013-04-18 21:10:00,
2013-04-18 17:25:00,77.4,70.0,30.00,East,86,0.0,-999.0,78,-99.99,,,0.00,weatherlink.com 1.10,2013-04-18 21:25:00,
2013-04-18 17:40:00,76.8,70.0,30.00,NE,49,1.0,-999.0,79,-99.99,,,0.00,weatherlink.com 1.10,2013-04-18 21:40:00,
2013-04-18 17:55:00,76.6,70.0,30.00,ESE,103,1.0,-999.0,80,-99.99,,,0.00,weatherlink.com 1.10,2013-04-18 21:55:00,
2013-04-18 18:10:00,76.1,70.0,30.00,ENE,64,0.0,-999.0,82,-99.99,,,0.00,weatherlink.com 1.10,2013-04-18 22:10:00,
2013-04-18 18:25:00,75.3,70.0,30.00,ENE,76,3.0,-999.0,84,-99.99,,,0.00,weatherlink.com 1.10,2013-04-18 22:25:00,
2013-04-18 18:54:00,74.4,70.0,29.98,ENE,74,0.0,-999.0,86,-99.99,,,0.00,weatherlink.com 1.10,2013-04-18 22:54:00,
2013-04-18 19:09:00,74.2,70.0,29.99,West,277,0.0,-999.0,85,-99.99,,,0.00,weatherlink.com 1.10,2013-04-18 23:09:00,
2013-04-18 19:24:00,74.0,69.0,29.99,NE,55,0.0,-999.0,85,-99.99,,,0.00,weatherlink.com 1.10,2013-04-18 23:24:00,
2013-04-18 19:39:00,73.8,69.0,29.99,ENE,58,5.0,-999.0,85,-99.99,,,0.00,weatherlink.com 1.10,2013-04-18 23:39:00,
2013-04-18 19:54:00,73.6,69.0,29.99,ENE,64,0.0,-999.0,86,-99.99,,,0.00,weatherlink.com 1.10,2013-04-18 23:54:00,
2013-04-18 20:10:00,73.2,69.0,29.99,WNW,303,0.0,-999.0,87,-99.99,,,0.00,weatherlink.com 1.10,2013-04-19 00:10:00,
2013-04-18 20:25:00,73.0,69.0,30.00,NNE,30,0.0,-999.0,88,-99.99,,,0.00,weatherlink.com 1.10,2013-04-19 00:25:00,
2013-04-18 20:40:00,72.8,70.0,30.00,NNW,338,0.0,-999.0,89,-99.99,,,0.00,weatherlink.com 1.10,2013-04-19 00:40:00,
2013-04-18 20:55:00,72.6,69.0,30.00,WNW,295,0.0,-999.0,89,-99.99,,,0.00,weatherlink.com 1.10,2013-04-19 00:55:00,
2013-04-18 21:10:00,72.5,70.0,30.01,ENE,74,0.0,-999.0,90,-99.99,,,0.00,weatherlink.com 1.10,2013-04-19 01:10:00,
2013-04-18 21:25:00,72.2,70.0,30.01,ENE,58,0.0,-999.0,91,-99.99,,,0.00,weatherlink.com 1.10,2013-04-19 01:25:00,
2013-04-18 21:40:00,72.1,69.0,30.01,WSW,256,0.0,-999.0,91,-99.99,,,0.00,weatherlink.com 1.10,2013-04-19 01:40:00,
2013-04-18 21:54:00,72.0,70.0,30.01,NNE,32,0.0,-999.0,92,-99.99,,,0.00,weatherlink.com 1.10,2013-04-19 01:54:00,
2013-04-18 22:09:00,72.0,70.0,30.02,NE,37,0.0,-999.0,92,-99.99,,,0.00,weatherlink.com 1.10,2013-04-19 02:09:00,
2013-04-18 22:24:00,72.1,70.0,30.02,NNE,31,0.0,-999.0,92,-99.99,,,0.00,weatherlink.com 1.10,2013-04-19 02:24:00,
2013-04-18 22:39:00,72.1,70.0,30.02,East,81,0.0,-999.0,93,-99.99,,,0.00,weatherlink.com 1.10,2013-04-19 02:39:00,
2013-04-18 22:55:00,72.1,70.0,30.02,NW,309,0.0,-999.0,93,-99.99,,,0.00,weatherlink.com 1.10,2013-04-19 02:55:00,
2013-04-18 23:10:00,72.0,70.0,30.02,NE,43,0.0,-999.0,94,-99.99,,,0.00,weatherlink.com 1.10,2013-04-19 03:10:00,
2013-04-18 23:25:00,72.0,70.0,30.01,NNW,331,0.0,-999.0,94,-99.99,,,0.00,weatherlink.com 1.10,2013-04-19 03:25:00,
2013-04-18 23:40:00,72.2,70.0,30.01,ENE,67,1.0,-999.0,94,-99.99,,,0.00,weatherlink.com 1.10,2013-04-19 03:40:00,
2013-04-18 23:54:00,72.4,71.0,30.02,NNW,327,0.0,-999.0,94,-99.99,,,0.00,weatherlink.com 1.10,2013-04-19 03:54:00,